This is the latest recevied weather packets stored in our database for station/object F4ETJ-1. If no packets are shown the sender has not sent any weather packets the latest 10 day(s).
| Time | Temp. | Humidity | Pressure | Rain* | Wind** | Luminosity | Snow |
|---|---|---|---|---|---|---|---|
| 1777705848 | 15.56° C | 66% | 1015.5 hPa | 0 mm | - | - | - |
| 1777705488 | 15.56° C | 68% | 1015.4 hPa | 0 mm | - | - | - |
| 1777705128 | 15° C | 67% | 1015.4 hPa | 0 mm | - | - | - |
| 1777704769 | 15° C | 67% | 1015.2 hPa | 0 mm | - | - | - |
| 1777704407 | 15° C | 68% | 1015.2 hPa | 0 mm | - | - | - |
| 1777704047 | 14.44° C | 67% | 1015.3 hPa | 0 mm | - | - | - |
| 1777703686 | 14.44° C | 66% | 1015.2 hPa | 0 mm | - | - | - |
| 1777703326 | 15° C | 65% | 1015.2 hPa | 0 mm | - | - | - |
| 1777702966 | 15° C | 66% | 1015.3 hPa | 0 mm | - | - | - |
| 1777702605 | 14.44° C | 68% | 1015.2 hPa | 0 mm | - | - | - |
| 1777702247 | 13.89° C | 69% | 1015.1 hPa | 0 mm | - | - | - |
| 1777701885 | 13.33° C | 69% | 1015.2 hPa | 0 mm | - | - | - |
| 1777701524 | 13.33° C | 71% | 1015.1 hPa | 0 mm | - | - | - |
| 1777701164 | 12.78° C | 73% | 1015.1 hPa | 0 mm | - | - | - |
| 1777700804 | 12.22° C | 74% | 1015.2 hPa | 0 mm | - | - | - |
| 1777700443 | 12.22° C | 74% | 1015.2 hPa | 0 mm | - | - | - |
| 1777700083 | 11.67° C | 75% | 1015.2 hPa | 0 mm | - | - | - |
| 1777699723 | 11.67° C | 75% | 1015.3 hPa | 0 mm | - | - | - |
| 1777699362 | 11.67° C | 75% | 1015.3 hPa | 0 mm | - | - | - |
| 1777699002 | 12.22° C | 74% | 1015.4 hPa | 0 mm | - | - | - |
| 1777698642 | 12.22° C | 74% | 1015.3 hPa | 0 mm | - | - | - |
| 1777677451 | 14.44° C | 87% | 1017.4 hPa | 0 mm | - | - | - |
| 1777677092 | 15° C | 86% | 1017.4 hPa | 0 mm | - | - | - |
| 1777676370 | 15° C | 85% | 1017.5 hPa | 0 mm | - | - | - |
| 1777676009 | 15° C | 87% | 1017.5 hPa | 0 mm | - | - | - |
* Rain latest hour (hover to see other rain measurements)
** Current wind speed in m/s (hover to see current wind gust speed)